Time;durP1;ratioP1;P1;durP2;ratioP2;P2;SDS_P1;SDS_P2;PMS_P1;PMS_P2;Temp;Humidity;BMP_temperature;BMP_pressure;BME280_temperature;BME280_humidity;BME280_pressure;Samples;Min_cycle;Max_cycle;Signal;HPM_P1;HPM_P2
2022/01/20 00:00:17;;;;;;;11.00;7.00;;;;;;;0.09;67.59;96329.60;107417;1270;33004;-73
2022/01/20 00:03:13;;;;;;;10.70;5.00;;;;;;;0.08;68.63;96342.90;107422;1270;39321;-72
2022/01/20 00:06:24;;;;;;;11.60;6.30;;;;;;;0.08;68.53;96354.60;107385;1269;49955;-73
2022/01/20 00:09:05;;;;;;;13.60;6.30;;;;;;;0.08;68.64;96354.40;107350;1269;37092;-73
2022/01/20 00:23:28;;;;;;;12.20;4.80;;;;;;;0.19;69.47;96371.86;107496;1269;43667;-73
2022/01/20 00:26:05;;;;;;;10.10;6.70;;;;;;;0.38;69.41;96378.04;107426;1270;37661;-73
2022/01/20 00:28:42;;;;;;;7.90;4.30;;;;;;;0.50;69.51;96381.61;107472;1269;43977;-74
2022/01/20 00:31:31;;;;;;;7.90;4.10;;;;;;;0.57;69.13;96377.52;107397;1270;30822;-74
2022/01/20 00:34:13;;;;;;;13.10;6.40;;;;;;;0.64;68.96;96369.37;107398;1270;44218;-74
2022/01/20 00:39:35;;;;;;;8.50;4.50;;;;;;;0.71;68.88;96402.75;107413;1268;40221;-73
2022/01/20 00:42:08;;;;;;;8.80;4.30;;;;;;;0.69;68.81;96397.45;107463;1269;32684;-73
2022/01/20 00:44:39;;;;;;;9.70;5.50;;;;;;;0.74;68.73;96409.23;107457;1269;36679;-73
2022/01/20 00:47:10;;;;;;;14.20;6.10;;;;;;;0.74;68.75;96395.52;107301;1271;48109;-74
2022/01/20 00:49:48;;;;;;;10.50;5.70;;;;;;;0.72;68.76;96380.79;107470;1269;36655;-73
2022/01/20 00:52:22;;;;;;;9.40;5.40;;;;;;;0.70;68.84;96380.52;107518;1269;35523;-73
2022/01/20 00:54:54;;;;;;;14.40;6.60;;;;;;;0.68;68.96;96386.57;107463;1269;32392;-74
2022/01/20 00:57:25;;;;;;;10.50;5.10;;;;;;;0.66;68.92;96392.89;107457;1269;30933;-74
2022/01/20 00:59:56;;;;;;;12.00;6.70;;;;;;;0.68;69.25;96386.04;107446;1269;34756;-74
2022/01/20 01:02:27;;;;;;;12.50;4.90;;;;;;;0.68;69.19;96384.11;107509;1269;38428;-73
2022/01/20 01:04:58;;;;;;;11.60;4.50;;;;;;;0.69;69.64;96375.27;107498;1269;32748;-74
2022/01/20 01:10:33;;;;;;;6.80;4.30;;;;;;;0.76;69.86;96384.55;103996;1308;545483;-73
2022/01/20 01:13:09;;;;;;;13.30;7.20;;;;;;;0.74;70.14;96387.21;106921;1280;32359;-73
2022/01/20 01:15:56;;;;;;;9.60;4.90;;;;;;;0.78;69.88;96390.54;106882;1281;40637;-73
2022/01/20 01:21:28;;;;;;;10.00;6.20;;;;;;;0.80;70.10;96388.73;107137;1274;40957;-74
2022/01/20 01:23:59;;;;;;;10.90;5.00;;;;;;;0.79;69.97;96385.45;106942;1274;225185;-73
2022/01/20 01:26:30;;;;;;;8.80;4.60;;;;;;;0.78;70.34;96378.13;107330;1271;34599;-74
2022/01/20 01:29:03;;;;;;;11.80;6.40;;;;;;;0.80;70.28;96377.56;107304;1271;32701;-73
2022/01/20 01:31:37;;;;;;;8.10;4.60;;;;;;;0.83;70.30;96379.41;107325;1271;35513;-73
2022/01/20 01:34:11;;;;;;;10.10;5.40;;;;;;;0.84;70.14;96378.23;107407;1273;35249;-73
2022/01/20 01:36:52;;;;;;;9.70;5.80;;;;;;;0.82;70.18;96366.34;107320;1271;41088;-73
2022/01/20 01:39:22;;;;;;;7.50;4.20;;;;;;;0.82;69.97;96357.46;107291;1271;43548;-75
2022/01/20 01:41:56;;;;;;;11.70;5.80;;;;;;;0.82;70.29;96349.05;107345;1270;36005;-74
2022/01/20 01:44:29;;;;;;;10.60;6.10;;;;;;;0.81;69.94;96344.07;107307;1271;41411;-73
2022/01/20 01:47:01;;;;;;;10.10;5.50;;;;;;;0.80;70.24;96341.84;107307;1271;43339;-74
2022/01/20 01:49:32;;;;;;;13.10;5.70;;;;;;;0.83;70.36;96321.05;107362;1273;36139;-74
2022/01/20 01:52:03;;;;;;;8.50;5.20;;;;;;;0.84;70.06;96330.54;107353;1272;29176;-73
2022/01/20 01:54:34;;;;;;;8.50;5.10;;;;;;;0.84;70.45;96325.52;107314;1273;40086;-73
2022/01/20 01:57:09;;;;;;;10.60;5.30;;;;;;;0.88;70.17;96313.88;107366;1271;39021;-73
2022/01/20 01:59:40;;;;;;;10.50;5.70;;;;;;;0.89;70.02;96308.95;107359;1271;35219;-74
2022/01/20 02:02:10;;;;;;;8.40;4.80;;;;;;;0.90;69.94;96303.48;107275;1273;44484;-74
2022/01/20 02:04:41;;;;;;;8.80;4.80;;;;;;;0.93;69.83;96302.60;107319;1271;36340;-73
2022/01/20 02:07:39;;;;;;;7.30;5.20;;;;;;;0.95;69.88;96287.05;107320;1272;35756;-74
2022/01/20 02:18:45;;;;;;;7.10;3.40;;;;;;;1.01;70.23;96256.42;107350;1271;33877;-74
2022/01/20 02:21:16;;;;;;;8.20;4.80;;;;;;;1.03;70.39;96256.35;107333;1273;28483;-74
2022/01/20 02:23:48;;;;;;;10.90;4.50;;;;;;;1.03;70.74;96259.84;107355;1271;32879;-73
2022/01/20 02:26:19;;;;;;;5.10;3.10;;;;;;;1.02;70.69;96246.48;107446;1271;28774;-73
2022/01/20 02:28:50;;;;;;;6.60;4.70;;;;;;;1.02;71.15;96238.41;107372;1271;36374;-73
2022/01/20 02:31:21;;;;;;;8.90;4.80;;;;;;;1.00;71.64;96232.70;107350;1271;45535;-73
2022/01/20 02:33:55;;;;;;;8.30;4.50;;;;;;;0.99;71.89;96224.05;107435;1271;36099;-73
2022/01/20 02:36:26;;;;;;;5.60;3.70;;;;;;;0.97;72.15;96231.05;107348;1272;44283;-74
2022/01/20 02:39:03;;;;;;;7.20;4.30;;;;;;;0.96;72.44;96224.48;107361;1272;38561;-74
2022/01/20 02:44:53;;;;;;;8.10;4.50;;;;;;;0.95;73.08;96218.52;106842;1279;44414;-73
2022/01/20 02:47:27;;;;;;;6.60;3.80;;;;;;;0.95;73.18;96211.62;107306;1271;38791;-74
2022/01/20 02:49:58;;;;;;;8.00;3.90;;;;;;;0.92;73.47;96215.58;107258;1272;32477;-74
2022/01/20 02:52:29;;;;;;;7.20;3.90;;;;;;;0.87;73.63;96207.55;107313;1273;37805;-74
2022/01/20 02:55:00;;;;;;;9.70;5.70;;;;;;;0.84;73.94;96207.55;107326;1272;35941;-73
2022/01/20 02:57:31;;;;;;;11.60;5.80;;;;;;;0.85;74.28;96210.95;107367;1272;34425;-74
2022/01/20 03:00:02;;;;;;;7.40;4.90;;;;;;;0.86;74.38;96220.38;107283;1271;45156;-74
2022/01/20 03:02:32;;;;;;;8.00;4.10;;;;;;;0.85;74.70;96206.30;107209;1274;38947;-73
2022/01/20 03:05:03;;;;;;;6.60;4.10;;;;;;;0.84;74.88;96217.45;107409;1271;27036;-73
2022/01/20 03:07:34;;;;;;;7.60;5.50;;;;;;;0.85;75.02;96208.74;107325;1270;36452;-73
2022/01/20 03:10:06;;;;;;;8.80;5.50;;;;;;;0.86;74.89;96211.26;107280;1271;32970;-72
2022/01/20 03:12:37;;;;;;;6.20;4.20;;;;;;;0.87;74.79;96218.98;107284;1272;46144;-72
2022/01/20 03:15:09;;;;;;;5.40;3.80;;;;;;;0.89;74.73;96213.34;107343;1271;36703;-73
2022/01/20 03:17:39;;;;;;;5.20;3.70;;;;;;;0.89;74.78;96216.42;107284;1271;34237;-73
2022/01/20 03:20:12;;;;;;;7.80;5.40;;;;;;;0.88;74.76;96210.98;107308;1271;40661;-73
2022/01/20 03:22:43;;;;;;;6.10;4.30;;;;;;;0.91;74.73;96207.59;107408;1271;92689;-73
2022/01/20 03:25:14;;;;;;;7.10;3.90;;;;;;;0.92;74.70;96211.72;107328;1271;36370;-72
2022/01/20 03:27:47;;;;;;;8.10;4.30;;;;;;;0.93;74.95;96215.14;107322;1271;35300;-72
2022/01/20 03:30:19;;;;;;;7.10;3.60;;;;;;;0.96;74.51;96199.11;107315;1272;35551;-73
2022/01/20 03:32:50;;;;;;;5.50;3.40;;;;;;;0.96;74.34;96188.79;107477;1271;31725;-72
2022/01/20 03:35:20;;;;;;;5.90;3.80;;;;;;;0.97;74.25;96188.25;107370;1272;42611;-73
2022/01/20 03:37:51;;;;;;;8.90;4.00;;;;;;;0.98;74.01;96190.34;107421;1273;38211;-73
2022/01/20 03:40:23;;;;;;;6.10;3.90;;;;;;;0.99;73.76;96186.27;107274;1273;37895;-73
2022/01/20 03:42:54;;;;;;;5.20;3.20;;;;;;;1.03;73.59;96177.48;107301;1271;39998;-73
2022/01/20 03:45:27;;;;;;;5.10;2.80;;;;;;;1.06;73.46;96168.34;107302;1271;37336;-73
2022/01/20 03:48:07;;;;;;;5.40;3.50;;;;;;;1.07;73.36;96159.23;107334;1273;42591;-74
2022/01/20 03:53:38;;;;;;;2.20;1.90;;;;;;;1.09;73.01;96155.92;107306;1271;41601;-73
2022/01/20 03:56:09;;;;;;;4.50;2.60;;;;;;;1.13;72.80;96144.77;107331;1271;32231;-73
2022/01/20 03:58:40;;;;;;;4.20;2.90;;;;;;;1.16;72.94;96154.27;107351;1273;35286;-73
2022/01/20 04:01:11;;;;;;;5.40;2.70;;;;;;;1.16;72.82;96151.66;107352;1271;40877;-73
2022/01/20 04:03:42;;;;;;;5.50;2.70;;;;;;;1.18;72.65;96151.05;107360;1271;33340;-73
2022/01/20 04:06:13;;;;;;;5.20;2.80;;;;;;;1.18;72.77;96142.98;107348;1271;33405;-73
2022/01/20 04:08:46;;;;;;;5.30;3.10;;;;;;;1.18;72.65;96142.81;107289;1273;44875;-73
2022/01/20 04:11:23;;;;;;;6.30;2.60;;;;;;;1.19;72.74;96146.73;107377;1271;44268;-73
2022/01/20 04:13:54;;;;;;;4.60;2.50;;;;;;;1.21;72.51;96152.68;107367;1271;35082;-73
2022/01/20 04:16:33;;;;;;;6.70;3.50;;;;;;;1.22;72.91;96145.23;107256;1273;45721;-74
2022/01/20 04:19:08;;;;;;;4.70;3.00;;;;;;;1.20;72.82;96145.88;107242;1274;37459;-74
2022/01/20 04:21:42;;;;;;;4.20;2.80;;;;;;;1.18;72.62;96136.91;107255;1271;41782;-74
2022/01/20 04:24:14;;;;;;;4.70;2.70;;;;;;;1.18;72.87;96138.48;107342;1273;33712;-74
2022/01/20 04:26:47;;;;;;;4.40;2.80;;;;;;;1.19;72.67;96133.48;107296;1273;40814;-74
2022/01/20 04:29:18;;;;;;;3.70;2.20;;;;;;;1.18;72.98;96126.63;107388;1272;36515;-74
2022/01/20 04:31:50;;;;;;;5.80;2.90;;;;;;;1.16;73.00;96122.53;107378;1273;34663;-73
2022/01/20 04:34:22;;;;;;;4.70;2.20;;;;;;;1.19;73.16;96122.72;107376;1271;46770;-73
2022/01/20 04:36:54;;;;;;;5.10;3.40;;;;;;;1.19;73.41;96124.40;107397;1271;35269;-73
2022/01/20 04:39:28;;;;;;;5.00;2.70;;;;;;;1.19;73.51;96118.02;107303;1271;50362;-73
2022/01/20 04:41:59;;;;;;;5.60;3.40;;;;;;;1.18;73.46;96111.69;107296;1272;49910;-74
2022/01/20 04:44:38;;;;;;;4.40;2.70;;;;;;;1.20;73.58;96108.48;107295;1271;37879;-74
2022/01/20 04:58:23;;;;;;;6.10;3.30;;;;;;;1.13;74.73;96102.02;107369;1273;32439;-73
2022/01/20 05:00:54;;;;;;;2.70;2.10;;;;;;;1.12;75.30;96100.60;107280;1271;39949;-73
2022/01/20 05:03:25;;;;;;;6.00;3.10;;;;;;;1.09;75.50;96091.86;107368;1271;37134;-73
2022/01/20 05:05:56;;;;;;;3.90;2.90;;;;;;;1.02;76.04;96087.63;107279;1271;40290;-73
2022/01/20 05:08:29;;;;;;;3.80;2.80;;;;;;;0.96;76.52;96087.74;107367;1271;32454;-73
2022/01/20 05:11:02;;;;;;;4.90;2.60;;;;;;;0.94;77.12;96090.88;107201;1274;32990;-73
2022/01/20 05:13:35;;;;;;;6.00;3.20;;;;;;;0.90;77.10;96084.34;107321;1273;33320;-73
2022/01/20 05:16:06;;;;;;;6.10;3.00;;;;;;;0.87;77.13;96077.65;107357;1271;38593;-73
2022/01/20 05:18:37;;;;;;;4.50;2.60;;;;;;;0.90;77.45;96076.30;107189;1274;37957;-73
2022/01/20 05:21:08;;;;;;;4.70;3.10;;;;;;;0.95;77.32;96081.88;107370;1271;35383;-73
2022/01/20 05:23:39;;;;;;;5.20;3.60;;;;;;;0.95;77.11;96079.27;107299;1271;45356;-73
2022/01/20 05:26:11;;;;;;;6.50;4.00;;;;;;;0.95;77.37;96077.39;107365;1273;35042;-73
2022/01/20 05:28:42;;;;;;;8.30;3.50;;;;;;;0.96;77.72;96068.37;107335;1273;41350;-73
2022/01/20 05:31:13;;;;;;;7.40;3.80;;;;;;;0.97;77.81;96071.41;107289;1272;39612;-73
2022/01/20 05:33:44;;;;;;;4.60;3.50;;;;;;;0.99;77.73;96074.65;107223;1273;35365;-73
2022/01/20 05:36:14;;;;;;;4.80;2.80;;;;;;;0.99;77.62;96071.64;107270;1274;28249;-73
2022/01/20 05:38:45;;;;;;;5.50;3.40;;;;;;;0.99;77.62;96071.06;107346;1272;37640;-72
2022/01/20 05:41:18;;;;;;;6.20;3.50;;;;;;;1.01;77.61;96072.36;107309;1271;39931;-72
2022/01/20 05:43:49;;;;;;;5.60;3.60;;;;;;;1.02;77.80;96070.81;107315;1271;32229;-73
2022/01/20 05:46:23;;;;;;;8.80;5.00;;;;;;;1.00;77.81;96077.60;107389;1271;38773;-73
2022/01/20 05:49:03;;;;;;;5.80;3.50;;;;;;;0.97;77.93;96071.98;107354;1271;37314;-74
2022/01/20 05:51:34;;;;;;;5.20;3.70;;;;;;;0.94;78.23;96068.19;107316;1272;35413;-73
2022/01/20 05:54:06;;;;;;;4.40;3.20;;;;;;;0.88;79.00;96069.08;107400;1273;28686;-73
2022/01/20 05:56:38;;;;;;;6.60;4.20;;;;;;;0.82;79.50;96068.98;107387;1271;34745;-73
2022/01/20 05:59:09;;;;;;;6.00;3.20;;;;;;;0.77;79.39;96071.60;107292;1273;41312;-72
2022/01/20 06:01:40;;;;;;;8.50;5.30;;;;;;;0.75;79.45;96064.61;107316;1273;37312;-73
2022/01/20 06:04:11;;;;;;;7.90;4.00;;;;;;;0.72;79.93;96064.56;107342;1273;34781;-72
2022/01/20 06:06:44;;;;;;;7.50;5.00;;;;;;;0.73;79.86;96058.27;107360;1271;39067;-73
2022/01/20 06:09:15;;;;;;;9.90;3.90;;;;;;;0.73;79.86;96051.95;107340;1272;44167;-73
2022/01/20 06:11:46;;;;;;;7.50;4.60;;;;;;;0.74;79.91;96060.38;107312;1273;32683;-73
2022/01/20 06:14:16;;;;;;;5.20;3.40;;;;;;;0.75;79.95;96061.34;107318;1273;43442;-73
2022/01/20 06:16:47;;;;;;;7.00;4.20;;;;;;;0.76;80.00;96058.73;107390;1273;39898;-72
2022/01/20 06:19:18;;;;;;;7.40;4.20;;;;;;;0.76;79.89;96066.25;107311;1271;36870;-73
2022/01/20 06:21:49;;;;;;;8.00;4.00;;;;;;;0.75;80.05;96061.08;107389;1273;32591;-73
2022/01/20 06:24:20;;;;;;;7.00;3.30;;;;;;;0.77;80.07;96059.91;107407;1273;43106;-73
2022/01/20 06:26:51;;;;;;;6.40;3.80;;;;;;;0.81;79.72;96061.29;107389;1271;46845;-73
2022/01/20 06:29:22;;;;;;;6.20;3.70;;;;;;;0.82;79.79;96056.98;107366;1273;41197;-73
2022/01/20 06:31:53;;;;;;;4.40;2.70;;;;;;;0.85;80.01;96050.73;107271;1271;37817;-74
2022/01/20 06:34:26;;;;;;;3.50;2.70;;;;;;;0.90;79.95;96052.30;107350;1273;33453;-73
2022/01/20 06:36:58;;;;;;;6.90;3.70;;;;;;;0.92;79.72;96049.72;107320;1273;40428;-73
2022/01/20 06:39:29;;;;;;;4.60;3.20;;;;;;;0.95;79.97;96043.30;107334;1273;33904;-73
2022/01/20 06:42:00;;;;;;;6.20;2.90;;;;;;;0.99;79.60;96039.91;107242;1274;34465;-73
2022/01/20 06:44:31;;;;;;;5.80;3.80;;;;;;;1.00;79.62;96040.45;107324;1273;32698;-73
2022/01/20 06:47:02;;;;;;;7.80;3.70;;;;;;;0.99;79.57;96035.94;107297;1273;40101;-73
2022/01/20 06:49:33;;;;;;;7.20;3.40;;;;;;;1.01;79.44;96033.38;107361;1273;35722;-73
2022/01/20 06:52:10;;;;;;;7.60;3.40;;;;;;;1.02;79.29;96021.38;107372;1271;30407;-73
2022/01/20 06:54:41;;;;;;;7.20;3.40;;;;;;;1.04;79.25;96021.21;107343;1271;34850;-73
2022/01/20 06:57:12;;;;;;;5.70;2.90;;;;;;;1.05;79.28;96010.58;107314;1273;38063;-73
2022/01/20 06:59:43;;;;;;;6.10;3.70;;;;;;;1.11;78.89;96009.12;107315;1271;35137;-73
2022/01/20 07:02:14;;;;;;;3.00;2.10;;;;;;;1.15;78.61;96006.17;107379;1273;35942;-75
2022/01/20 07:04:47;;;;;;;6.90;3.40;;;;;;;1.18;78.27;96012.08;107317;1272;47478;-73
2022/01/20 07:07:18;;;;;;;6.70;3.70;;;;;;;1.21;78.45;96020.21;107350;1273;41808;-73
2022/01/20 07:09:49;;;;;;;5.90;3.40;;;;;;;1.26;78.08;96007.30;107328;1271;34386;-73
2022/01/20 07:12:19;;;;;;;4.90;2.40;;;;;;;1.28;77.75;96004.27;107399;1273;30527;-73
2022/01/20 07:14:51;;;;;;;4.20;2.10;;;;;;;1.30;77.71;96009.58;107374;1271;34241;-73
2022/01/20 07:17:21;;;;;;;4.90;2.60;;;;;;;1.33;77.57;96018.86;107392;1273;33520;-73
2022/01/20 07:19:52;;;;;;;5.70;3.20;;;;;;;1.33;77.31;96009.73;107448;1273;31813;-73
2022/01/20 07:22:23;;;;;;;5.40;3.30;;;;;;;1.32;77.24;96014.83;107325;1272;34711;-74
2022/01/20 07:24:54;;;;;;;5.40;3.00;;;;;;;1.31;77.62;96004.27;107310;1273;39229;-73
2022/01/20 07:27:27;;;;;;;3.70;2.60;;;;;;;1.31;77.30;95998.52;107531;1269;38912;-73
2022/01/20 07:29:58;;;;;;;5.80;3.90;;;;;;;1.34;77.31;96001.02;107518;1269;32324;-74
2022/01/20 07:32:29;;;;;;;5.40;2.90;;;;;;;1.35;77.19;95990.16;107579;1268;32410;-73
2022/01/20 07:35:00;;;;;;;7.30;3.30;;;;;;;1.35;77.15;95999.15;107596;1270;32738;-73
2022/01/20 07:37:31;;;;;;;4.40;3.10;;;;;;;1.37;77.03;96000.70;107518;1269;43868;-73
2022/01/20 07:40:02;;;;;;;5.80;3.60;;;;;;;1.40;76.95;95994.54;107513;1270;41243;-74
2022/01/20 07:42:33;;;;;;;4.90;3.30;;;;;;;1.45;76.76;95993.34;107468;1268;48236;-73
2022/01/20 07:45:05;;;;;;;4.80;2.50;;;;;;;1.50;76.46;96005.84;107492;1269;35647;-73
2022/01/20 07:47:36;;;;;;;7.80;3.60;;;;;;;1.52;76.37;96005.55;107553;1270;41520;-74
2022/01/20 07:50:09;;;;;;;8.10;3.50;;;;;;;1.53;76.53;96004.89;107557;1270;41041;-74
2022/01/20 07:52:44;;;;;;;4.50;3.10;;;;;;;1.51;76.21;96008.98;107495;1269;41558;-74
2022/01/20 07:55:15;;;;;;;3.60;2.50;;;;;;;1.51;76.53;96004.45;107572;1269;36133;-73
2022/01/20 07:57:46;;;;;;;7.80;3.40;;;;;;;1.54;76.19;96003.35;107527;1268;35200;-73
2022/01/20 08:00:18;;;;;;;4.20;2.20;;;;;;;1.56;76.17;96014.27;107535;1269;36750;-73
2022/01/20 08:02:49;;;;;;;6.30;3.50;;;;;;;1.57;76.02;96015.00;107576;1268;35252;-73
2022/01/20 08:05:20;;;;;;;5.20;3.60;;;;;;;1.58;76.17;96017.28;107640;1270;40226;-73
2022/01/20 08:07:51;;;;;;;4.20;2.50;;;;;;;1.58;76.13;96006.73;107623;1267;32792;-73
2022/01/20 08:10:21;;;;;;;8.00;4.40;;;;;;;1.57;75.93;96022.38;107510;1269;47377;-73
2022/01/20 08:12:52;;;;;;;6.60;3.70;;;;;;;1.57;75.98;96018.29;107615;1270;35944;-73
2022/01/20 08:15:23;;;;;;;6.90;4.00;;;;;;;1.60;75.83;96019.96;107601;1270;66994;-73
2022/01/20 08:17:54;;;;;;;7.50;4.20;;;;;;;1.67;76.05;96021.21;107549;1268;32568;-75
2022/01/20 08:20:25;;;;;;;4.00;2.90;;;;;;;1.74;75.93;96023.70;107532;1268;41343;-73
2022/01/20 08:22:56;;;;;;;5.20;2.70;;;;;;;1.78;75.36;96020.68;107479;1269;41781;-74
2022/01/20 08:25:27;;;;;;;6.30;2.80;;;;;;;1.81;75.18;96026.95;107519;1268;39639;-73
2022/01/20 08:27:58;;;;;;;5.60;3.40;;;;;;;1.85;75.11;96029.63;107575;1267;45960;-73
2022/01/20 08:30:29;;;;;;;5.60;3.00;;;;;;;1.86;75.15;96023.89;107534;1268;42787;-74
2022/01/20 08:33:01;;;;;;;6.30;2.20;;;;;;;1.87;75.18;96024.95;107541;1268;46500;-73
2022/01/20 08:35:32;;;;;;;3.70;2.50;;;;;;;1.87;74.67;96023.49;107507;1270;46713;-73
2022/01/20 08:38:03;;;;;;;4.90;2.60;;;;;;;1.86;74.57;96015.54;107570;1270;42720;-73
2022/01/20 08:40:35;;;;;;;3.20;1.90;;;;;;;1.87;74.46;96002.59;107440;1269;37648;-73
2022/01/20 08:43:07;;;;;;;3.90;2.60;;;;;;;1.88;74.29;95992.62;107504;1269;42539;-73
2022/01/20 08:45:43;;;;;;;4.00;2.10;;;;;;;1.88;74.41;95986.92;107524;1270;33413;-73
2022/01/20 08:48:14;;;;;;;4.20;2.70;;;;;;;1.90;74.54;95991.49;107574;1268;41017;-74
2022/01/20 08:50:46;;;;;;;4.10;2.30;;;;;;;1.91;74.64;95991.45;107547;1268;32937;-73
2022/01/20 08:53:17;;;;;;;3.60;2.10;;;;;;;1.90;74.68;95995.36;107528;1268;32146;-73
2022/01/20 08:55:48;;;;;;;3.60;2.10;;;;;;;1.87;74.86;96000.65;107548;1268;32889;-73
2022/01/20 08:58:19;;;;;;;2.40;1.60;;;;;;;1.83;75.34;96018.41;107547;1270;31558;-73
2022/01/20 09:00:50;;;;;;;4.10;2.40;;;;;;;1.67;77.54;96038.79;107624;1269;32793;-73
2022/01/20 09:03:21;;;;;;;3.70;2.40;;;;;;;1.38;79.76;96054.77;107574;1269;39299;-73
2022/01/20 09:05:52;;;;;;;4.10;2.40;;;;;;;1.14;80.88;96063.73;107630;1270;33353;-73
2022/01/20 09:08:23;;;;;;;2.80;1.70;;;;;;;1.07;80.69;96052.15;107625;1270;44474;-73
2022/01/20 09:10:55;;;;;;;3.90;2.00;;;;;;;0.99;80.75;96041.04;107510;1268;45963;-73
2022/01/20 09:16:15;;;;;;;1.60;1.00;;;;;;;0.84;78.73;96020.09;107492;1269;45345;-73
2022/01/20 09:18:46;;;;;;;2.20;1.30;;;;;;;0.92;78.08;96020.29;107521;1270;40774;-73
2022/01/20 09:21:21;;;;;;;3.20;1.10;;;;;;;1.01;78.44;96033.94;107531;1270;41057;-73
2022/01/20 09:23:53;;;;;;;2.10;1.10;;;;;;;1.04;78.82;96029.40;107648;1270;29387;-73
2022/01/20 09:26:24;;;;;;;6.00;1.50;;;;;;;1.08;78.99;96028.23;107550;1269;40014;-74
2022/01/20 09:28:55;;;;;;;4.40;1.80;;;;;;;1.10;78.78;96018.91;107602;1270;43200;-73
2022/01/20 09:31:28;;;;;;;3.80;1.70;;;;;;;1.10;78.87;96034.81;107584;1268;51351;-74
2022/01/20 09:33:59;;;;;;;3.50;2.00;;;;;;;1.05;78.86;96022.80;107545;1272;40332;-74
2022/01/20 09:36:30;;;;;;;2.60;1.20;;;;;;;0.98;78.81;96013.92;107699;1268;36016;-73
2022/01/20 09:39:01;;;;;;;3.70;1.80;;;;;;;0.83;79.31;96017.86;107604;1268;32842;-73
2022/01/20 09:41:32;;;;;;;3.20;1.20;;;;;;;0.70;79.42;96007.52;107591;1268;33551;-73
2022/01/20 09:44:05;;;;;;;2.40;0.90;;;;;;;0.61;79.88;96006.54;107514;1270;33024;-73
2022/01/20 09:46:36;;;;;;;1.90;1.00;;;;;;;0.57;80.12;96005.88;107496;1269;42123;-73
2022/01/20 09:49:09;;;;;;;1.30;0.80;;;;;;;0.55;80.37;96015.69;107474;1269;37596;-73
2022/01/20 09:51:40;;;;;;;3.60;1.20;;;;;;;0.55;80.39;95993.70;107530;1268;34988;-73
2022/01/20 09:54:12;;;;;;;4.20;1.50;;;;;;;0.56;80.93;95989.64;107563;1270;41819;-73
2022/01/20 09:56:44;;;;;;;2.40;1.30;;;;;;;0.61;80.76;95981.70;107560;1268;33376;-73
2022/01/20 09:59:15;;;;;;;1.50;1.00;;;;;;;0.66;80.93;95971.30;107648;1270;34697;-73
2022/01/20 10:01:49;;;;;;;3.30;1.40;;;;;;;0.76;80.68;95958.36;107496;1269;38155;-73
2022/01/20 10:04:26;;;;;;;5.40;2.50;;;;;;;0.81;80.56;95952.02;107760;1268;33231;-73
2022/01/20 10:07:00;;;;;;;4.80;2.40;;;;;;;0.92;80.80;95945.45;107566;1268;37460;-72
2022/01/20 10:09:38;;;;;;;4.00;2.40;;;;;;;1.01;81.05;95946.52;107518;1268;36701;-73
2022/01/20 10:12:14;;;;;;;6.50;2.90;;;;;;;1.06;80.86;95944.14;107609;1268;33000;-73
2022/01/20 10:14:47;;;;;;;7.20;3.10;;;;;;;1.15;81.22;95937.20;107620;1268;33491;-73
2022/01/20 10:17:23;;;;;;;5.50;2.70;;;;;;;1.42;81.41;95921.50;107521;1268;41369;-74
2022/01/20 10:19:55;;;;;;;6.20;3.70;;;;;;;1.57;81.19;95909.52;107635;1268;34823;-74
2022/01/20 10:22:27;;;;;;;8.20;3.30;;;;;;;1.70;81.33;95895.86;107577;1268;30337;-74
2022/01/20 10:25:04;;;;;;;4.70;2.80;;;;;;;1.86;81.14;95902.98;107487;1268;42393;-73
2022/01/20 10:27:46;;;;;;;3.50;2.40;;;;;;;1.99;80.80;95905.64;107498;1269;31250;-73
2022/01/20 10:30:19;;;;;;;4.20;2.40;;;;;;;1.91;80.30;95919.67;107538;1268;36043;-73
2022/01/20 10:32:52;;;;;;;3.10;1.90;;;;;;;1.81;80.29;95917.27;107689;1268;38202;-74
2022/01/20 10:35:32;;;;;;;3.40;1.70;;;;;;;1.82;79.76;95911.38;107651;1268;33995;-74
2022/01/20 10:38:12;;;;;;;4.20;2.10;;;;;;;1.76;78.55;95902.80;107595;1268;41837;-73
2022/01/20 10:40:52;;;;;;;4.50;1.80;;;;;;;1.84;78.26;95899.45;107544;1270;36909;-73
2022/01/20 10:43:26;;;;;;;4.00;1.40;;;;;;;1.90;77.52;95896.52;107886;1268;39616;-73
2022/01/20 10:46:06;;;;;;;3.20;1.60;;;;;;;1.90;76.37;95886.38;107673;1269;43287;-73
2022/01/20 10:48:37;;;;;;;4.00;2.20;;;;;;;1.90;76.04;95884.60;107558;1270;33143;-73
2022/01/20 10:51:18;;;;;;;4.10;1.70;;;;;;;1.96;76.26;95882.32;107483;1269;38847;-73
2022/01/20 10:54:00;;;;;;;2.80;1.70;;;;;;;2.04;75.68;95877.46;107573;1269;37850;-73
2022/01/20 10:56:31;;;;;;;3.90;1.80;;;;;;;2.09;75.24;95867.80;107545;1270;36343;-73
2022/01/20 10:59:09;;;;;;;2.20;1.60;;;;;;;2.14;74.62;95858.20;107490;1269;36001;-73
2022/01/20 11:01:41;;;;;;;5.20;2.70;;;;;;;2.21;74.24;95850.32;107551;1270;38206;-73
2022/01/20 11:04:11;;;;;;;4.10;1.90;;;;;;;2.21;71.79;95824.33;107594;1267;39717;-73
2022/01/20 11:06:43;;;;;;;2.10;1.20;;;;;;;2.19;71.23;95835.35;107600;1267;40280;-73
2022/01/20 11:09:19;;;;;;;4.10;1.30;;;;;;;2.22;70.05;95825.85;107598;1268;32312;-73
2022/01/20 11:11:52;;;;;;;4.80;1.80;;;;;;;2.28;69.44;95821.55;107655;1269;32109;-73
2022/01/20 11:14:22;;;;;;;2.80;1.40;;;;;;;2.30;68.69;95818.73;107674;1268;37902;-73
2022/01/20 11:16:57;;;;;;;2.40;1.40;;;;;;;2.27;67.60;95810.08;107549;1267;38400;-73
2022/01/20 11:19:37;;;;;;;1.10;0.80;;;;;;;2.24;66.48;95815.44;107599;1269;33365;-73
2022/01/20 11:22:11;;;;;;;1.90;1.10;;;;;;;2.20;66.33;95815.11;107594;1269;31317;-73
2022/01/20 11:24:43;;;;;;;2.10;1.00;;;;;;;2.15;64.80;95800.95;107745;1267;52383;-73
2022/01/20 11:27:15;;;;;;;2.90;1.00;;;;;;;2.11;65.75;95777.84;107668;1267;37567;-73
2022/01/20 11:29:49;;;;;;;4.80;1.50;;;;;;;2.13;65.44;95759.46;107549;1270;52804;-73
2022/01/20 11:32:26;;;;;;;6.20;1.60;;;;;;;2.08;63.55;95749.77;107712;1267;34848;-73
2022/01/20 11:35:01;;;;;;;9.40;1.70;;;;;;;2.03;62.99;95765.98;107564;1267;42476;-73
2022/01/20 11:37:35;;;;;;;3.20;1.40;;;;;;;2.00;62.66;95759.01;107631;1268;35596;-73
2022/01/20 11:40:17;;;;;;;5.50;1.40;;;;;;;1.98;61.70;95746.19;107584;1270;33144;-73
2022/01/20 11:43:02;;;;;;;4.10;1.30;;;;;;;1.97;61.99;95738.09;107604;1268;35344;-73
2022/01/20 11:45:36;;;;;;;4.80;1.20;;;;;;;1.96;62.41;95745.55;107599;1268;32500;-73
2022/01/20 11:48:22;;;;;;;2.30;1.40;;;;;;;1.91;61.40;95733.23;107583;1269;36655;-72
2022/01/20 11:51:06;;;;;;;2.90;1.50;;;;;;;1.89;61.21;95737.08;107675;1268;29119;-73
2022/01/20 11:53:41;;;;;;;4.20;1.50;;;;;;;1.86;61.07;95732.44;107574;1268;30768;-72
2022/01/20 11:56:13;;;;;;;4.00;1.40;;;;;;;1.83;61.12;95734.02;107594;1269;45989;-72
2022/01/20 11:58:51;;;;;;;0.90;0.70;;;;;;;1.84;60.72;95731.44;107599;1268;34773;-72
2022/01/20 12:01:27;;;;;;;3.30;1.20;;;;;;;1.82;61.20;95753.71;107611;1268;33542;-72
2022/01/20 12:03:59;;;;;;;3.20;0.90;;;;;;;1.78;61.21;95763.50;107620;1268;34288;-73
2022/01/20 12:06:42;;;;;;;3.50;1.20;;;;;;;1.76;61.07;95780.09;107613;1271;36224;-73
2022/01/20 12:09:17;;;;;;;5.90;1.70;;;;;;;1.71;61.37;95824.80;107588;1268;41696;-73
2022/01/20 12:11:49;;;;;;;3.40;1.20;;;;;;;1.61;62.55;95859.95;107622;1268;36358;-73
2022/01/20 12:14:35;;;;;;;3.00;0.70;;;;;;;0.94;73.16;95898.39;107608;1268;42984;-73
2022/01/20 12:17:11;;;;;;;1.50;0.70;;;;;;;-0.53;83.56;95913.14;107595;1268;46315;-73
2022/01/20 12:19:43;;;;;;;3.20;0.30;;;;;;;-1.40;89.35;95920.80;107542;1268;42577;-73
2022/01/20 12:22:15;;;;;;;0.50;0.50;;;;;;;-1.83;92.24;95938.88;107577;1268;35188;-73
2022/01/20 12:36:28;;;;;;;1.80;0.70;;;;;;;-1.95;96.17;95927.50;104349;1309;558604;-73
2022/01/20 12:38:59;;;;;;;1.10;0.50;;;;;;;-2.07;97.05;95926.98;106894;1281;130214;-73
2022/01/20 12:41:30;;;;;;;2.10;1.00;;;;;;;-2.15;97.51;95930.13;107102;1278;37615;-73
2022/01/20 12:44:06;;;;;;;1.10;0.60;;;;;;;-2.19;97.82;95918.13;106959;1277;50129;-73
2022/01/20 12:46:39;;;;;;;3.20;1.30;;;;;;;-2.23;98.12;95907.73;107063;1281;43238;-73
2022/01/20 12:49:12;;;;;;;4.60;0.60;;;;;;;-2.25;98.24;95915.33;107171;1280;32886;-73
2022/01/20 12:51:46;;;;;;;2.10;0.80;;;;;;;-2.27;98.46;95915.86;107034;1278;40686;-73
2022/01/20 12:54:21;;;;;;;2.60;1.30;;;;;;;-2.25;98.46;95918.72;107042;1280;40082;-73
2022/01/20 12:56:53;;;;;;;3.90;1.00;;;;;;;-2.25;98.45;95928.39;107002;1280;36499;-73
2022/01/20 12:59:26;;;;;;;1.70;1.30;;;;;;;-2.25;98.25;95924.21;107176;1277;33730;-72